Time;durP1;ratioP1;P1;durP2;ratioP2;P2;SDS_P1;SDS_P2;PMS_P1;PMS_P2;Temp;Humidity;BMP_temperature;BMP_pressure;BME280_temperature;BME280_humidity;BME280_pressure;Samples;Min_cycle;Max_cycle;Signal;HPM_P1;HPM_P2
2022/08/24 00:00:57;;;;;;;7.07;4.88;;;21.30;80.10;;;;;;5016467;28;20049;-73
2022/08/24 00:03:23;;;;;;;8.35;4.53;;;21.30;80.30;;;;;;5013673;28;20324;-72
2022/08/24 00:05:49;;;;;;;9.00;4.82;;;21.30;80.30;;;;;;5012858;28;20038;-73
2022/08/24 00:08:16;;;;;;;7.80;4.85;;;21.10;80.50;;;;;;5013235;28;20041;-74
2022/08/24 00:10:42;;;;;;;9.02;4.60;;;21.20;80.70;;;;;;5014904;28;20030;-74
2022/08/24 00:13:08;;;;;;;7.97;4.88;;;21.20;80.80;;;;;;5014653;28;20050;-73
2022/08/24 00:15:33;;;;;;;8.55;4.70;;;21.10;80.90;;;;;;5012513;28;20026;-72
2022/08/24 00:17:59;;;;;;;11.27;4.40;;;21.10;81.00;;;;;;5058409;28;20432;-74
2022/08/24 00:20:25;;;;;;;8.13;4.80;;;21.00;81.10;;;;;;5014101;28;20461;-73
2022/08/24 00:22:51;;;;;;;7.78;5.15;;;21.00;81.30;;;;;;5046472;28;20093;-75
2022/08/24 00:25:19;;;;;;;7.30;4.80;;;21.00;81.40;;;;;;5012488;28;20030;-74
2022/08/24 00:27:45;;;;;;;8.35;4.82;;;20.90;81.60;;;;;;5019647;28;20034;-73
2022/08/24 00:30:15;;;;;;;7.80;5.00;;;20.90;81.80;;;;;;5016380;28;20042;-74
2022/08/24 00:32:42;;;;;;;7.32;4.95;;;20.90;82.00;;;;;;5020042;28;20251;-73
2022/08/24 00:35:08;;;;;;;8.35;4.90;;;20.80;82.20;;;;;;5015987;28;20117;-73
2022/08/24 00:37:35;;;;;;;8.63;5.10;;;20.80;82.20;;;;;;5011083;28;20034;-73
2022/08/24 00:40:01;;;;;;;9.18;5.00;;;20.80;81.90;;;;;;5010299;28;20073;-73
2022/08/24 00:42:27;;;;;;;9.10;4.75;;;20.80;82.10;;;;;;5016832;28;20053;-73
2022/08/24 00:44:53;;;;;;;7.80;5.38;;;20.70;82.30;;;;;;5019521;28;20049;-73
2022/08/24 00:47:37;;;;;;;8.18;5.03;;;20.80;82.20;;;;;;5015616;28;20484;-72
2022/08/24 00:50:08;;;;;;;8.35;4.68;;;20.70;82.40;;;;;;5011088;28;20042;-72
2022/08/24 00:52:56;;;;;;;6.78;4.40;;;20.70;82.50;;;;;;5021747;28;20057;-73
2022/08/24 00:55:30;;;;;;;8.05;4.95;;;20.80;82.60;;;;;;5015345;28;20039;-73
2022/08/24 00:58:00;;;;;;;10.10;4.80;;;20.80;82.60;;;;;;5016986;28;20375;-72
2022/08/24 01:00:31;;;;;;;8.43;4.78;;;20.80;82.60;;;;;;5010985;28;20067;-73
2022/08/24 01:03:03;;;;;;;10.77;5.07;;;20.80;82.50;;;;;;5010241;28;20084;-72
2022/08/24 01:05:30;;;;;;;7.28;5.03;;;20.70;82.40;;;;;;5019093;28;20033;-73
2022/08/24 01:07:56;;;;;;;9.48;5.40;;;20.80;82.50;;;;;;5020422;28;20045;-73
2022/08/24 01:10:29;;;;;;;8.25;5.07;;;20.80;82.60;;;;;;5014480;28;20075;-73
2022/08/24 01:12:59;;;;;;;8.35;4.88;;;20.70;82.50;;;;;;5011121;28;20513;-73
2022/08/24 01:15:25;;;;;;;8.45;5.00;;;20.60;82.50;;;;;;5017192;28;20045;-73
2022/08/24 01:20:48;;;;;;;8.02;5.13;;;20.60;82.50;;;;;;5000909;28;20046;-72
2022/08/24 01:23:32;;;;;;;8.40;5.13;;;20.60;82.60;;;;;;5016537;28;20113;-73
2022/08/24 01:25:58;;;;;;;9.38;5.20;;;20.60;82.70;;;;;;5006175;28;20442;-73
2022/08/24 01:28:25;;;;;;;8.70;5.25;;;20.50;82.70;;;;;;5015705;28;20068;-73
2022/08/24 01:30:51;;;;;;;10.70;5.35;;;20.50;82.60;;;;;;5022895;28;20061;-73
2022/08/24 01:33:26;;;;;;;11.82;5.40;;;20.50;82.70;;;;;;5013774;28;20057;-73
2022/08/24 01:35:58;;;;;;;8.43;5.85;;;20.40;82.70;;;;;;5015392;28;20029;-74
2022/08/24 01:38:25;;;;;;;11.07;5.43;;;20.30;82.70;;;;;;5013974;28;20053;-73
2022/08/24 01:40:56;;;;;;;9.23;5.32;;;20.30;82.80;;;;;;5025512;28;20030;-73
2022/08/24 01:43:23;;;;;;;10.00;5.65;;;20.30;83.00;;;;;;5014329;28;20108;-72
2022/08/24 01:45:50;;;;;;;9.77;5.97;;;20.30;83.10;;;;;;5002758;28;20448;-75
2022/08/24 01:48:16;;;;;;;8.73;5.70;;;20.20;83.20;;;;;;5022644;28;20100;-73
2022/08/24 01:50:41;;;;;;;9.15;5.82;;;20.30;83.30;;;;;;5053505;28;20441;-73
2022/08/24 01:53:07;;;;;;;8.05;5.53;;;20.30;83.40;;;;;;5026255;28;20061;-73
2022/08/24 01:55:34;;;;;;;8.25;5.70;;;20.30;83.50;;;;;;5018061;28;20077;-73
2022/08/24 01:58:00;;;;;;;8.23;6.10;;;20.30;83.30;;;;;;5027981;28;20025;-73
2022/08/24 02:00:26;;;;;;;8.95;5.90;;;20.20;83.20;;;;;;5017166;28;20454;-73
2022/08/24 02:02:52;;;;;;;12.60;6.15;;;20.10;83.40;;;;;;5016644;28;20029;-73
2022/08/24 02:05:18;;;;;;;9.90;6.10;;;20.10;83.80;;;;;;5009934;28;20133;-73
2022/08/24 02:07:44;;;;;;;9.93;6.13;;;20.10;84.10;;;;;;5019416;28;20655;-73
2022/08/24 02:10:12;;;;;;;10.48;6.18;;;20.00;84.10;;;;;;5008207;28;20022;-73
2022/08/24 02:12:40;;;;;;;11.10;6.18;;;20.00;84.30;;;;;;5010676;28;20120;-73
2022/08/24 02:15:07;;;;;;;8.20;5.90;;;20.00;84.50;;;;;;5005047;28;20369;-74
2022/08/24 02:17:34;;;;;;;11.20;5.97;;;20.00;84.50;;;;;;5014923;28;20038;-75
2022/08/24 02:20:00;;;;;;;9.10;5.70;;;20.00;84.40;;;;;;5011826;28;20033;-73
2022/08/24 02:22:26;;;;;;;9.02;6.13;;;20.00;84.20;;;;;;5041278;28;20461;-73
2022/08/24 02:24:52;;;;;;;8.25;5.57;;;19.90;84.40;;;;;;5025415;28;20116;-73
2022/08/24 02:27:17;;;;;;;10.68;6.30;;;19.90;84.60;;;;;;5013019;28;20442;-73
2022/08/24 02:29:43;;;;;;;8.52;5.18;;;19.90;84.50;;;;;;5010564;28;20434;-73
2022/08/24 02:32:11;;;;;;;9.90;6.00;;;19.90;84.60;;;;;;5010540;28;20072;-74
2022/08/24 02:34:37;;;;;;;9.52;5.57;;;20.00;84.30;;;;;;5022313;28;20033;-73
2022/08/24 02:37:03;;;;;;;11.13;6.00;;;19.90;84.10;;;;;;5020705;28;20038;-73
2022/08/24 02:39:30;;;;;;;9.18;5.88;;;19.90;84.20;;;;;;5013541;28;20042;-72
2022/08/24 02:41:55;;;;;;;9.07;5.55;;;19.90;84.30;;;;;;5015525;28;20152;-73
2022/08/24 02:44:21;;;;;;;9.02;5.93;;;19.80;84.20;;;;;;5007509;28;20069;-75
2022/08/24 02:46:47;;;;;;;8.50;5.53;;;19.80;84.20;;;;;;5015084;28;20276;-73
2022/08/24 02:49:13;;;;;;;9.85;5.53;;;19.80;84.20;;;;;;5008372;28;20060;-73
2022/08/24 02:51:41;;;;;;;8.63;5.88;;;19.70;84.30;;;;;;5022881;28;20040;-73
2022/08/24 02:54:06;;;;;;;9.45;5.60;;;19.70;84.30;;;;;;5017729;28;20079;-73
2022/08/24 02:56:32;;;;;;;11.40;6.53;;;19.80;84.50;;;;;;5017317;28;20033;-73
2022/08/24 02:58:59;;;;;;;10.25;5.68;;;19.70;84.50;;;;;;5022907;28;20037;-72
2022/08/24 03:01:26;;;;;;;8.57;4.93;;;19.70;84.40;;;;;;5012113;28;20045;-72
2022/08/24 03:03:52;;;;;;;8.10;4.95;;;19.70;84.40;;;;;;5027055;28;20034;-72
2022/08/24 03:06:18;;;;;;;9.85;5.80;;;19.70;84.30;;;;;;5015882;28;20026;-73
2022/08/24 03:08:45;;;;;;;8.48;5.68;;;19.70;84.30;;;;;;5056415;28;20037;-73
2022/08/24 03:11:11;;;;;;;10.70;6.15;;;19.60;84.50;;;;;;5010461;28;20034;-72
2022/08/24 03:13:38;;;;;;;10.10;6.43;;;19.60;84.60;;;;;;5015217;28;20034;-73
2022/08/24 03:16:05;;;;;;;9.43;5.68;;;19.50;84.90;;;;;;5018805;28;20140;-74
2022/08/24 03:18:31;;;;;;;9.27;5.72;;;19.50;85.10;;;;;;5016737;28;20026;-73
2022/08/24 03:20:59;;;;;;;8.85;5.40;;;19.50;85.30;;;;;;5016696;28;20044;-73
2022/08/24 03:23:26;;;;;;;9.15;5.38;;;19.50;85.40;;;;;;5004975;28;20477;-73
2022/08/24 03:25:54;;;;;;;9.50;5.45;;;19.50;85.50;;;;;;5015796;28;20038;-73
2022/08/24 03:28:22;;;;;;;10.45;5.53;;;19.50;85.60;;;;;;5016270;28;20987;-72
2022/08/24 03:30:48;;;;;;;9.13;5.10;;;19.50;85.80;;;;;;5013187;28;20036;-72
2022/08/24 03:33:14;;;;;;;7.47;4.80;;;19.50;85.90;;;;;;5006128;28;20038;-72
2022/08/24 03:35:40;;;;;;;9.10;5.57;;;19.40;86.00;;;;;;5017392;28;20025;-73
2022/08/24 03:38:06;;;;;;;8.57;4.97;;;19.40;86.10;;;;;;5018192;28;20041;-73
2022/08/24 03:40:32;;;;;;;9.73;5.45;;;19.30;86.10;;;;;;5016270;28;20066;-72
2022/08/24 03:42:58;;;;;;;10.32;6.10;;;19.30;86.20;;;;;;5025842;28;20108;-72
2022/08/24 03:45:25;;;;;;;9.50;5.20;;;19.30;86.40;;;;;;5022818;28;20569;-73
2022/08/24 03:47:52;;;;;;;10.77;5.28;;;19.30;86.40;;;;;;5022591;28;20144;-72
2022/08/24 03:50:19;;;;;;;9.98;5.35;;;19.30;86.40;;;;;;5022217;28;20040;-72
2022/08/24 03:52:45;;;;;;;9.20;5.60;;;19.40;86.40;;;;;;5018681;28;20060;-73
2022/08/24 03:55:12;;;;;;;9.23;5.38;;;19.40;86.40;;;;;;5019072;28;20025;-73
2022/08/24 03:57:38;;;;;;;9.25;5.50;;;19.40;86.20;;;;;;5014302;28;20510;-72
2022/08/24 04:00:08;;;;;;;10.10;6.43;;;19.40;86.20;;;;;;5016387;28;20113;-75
2022/08/24 04:02:33;;;;;;;9.68;6.72;;;19.40;86.10;;;;;;5015741;28;20026;-75
2022/08/24 04:04:59;;;;;;;9.63;6.35;;;19.40;86.10;;;;;;5015266;28;20044;-73
2022/08/24 04:07:25;;;;;;;8.98;5.25;;;19.30;86.10;;;;;;5017713;28;20059;-72
2022/08/24 04:09:50;;;;;;;10.32;6.13;;;19.30;86.20;;;;;;5016735;28;20033;-72
2022/08/24 04:12:16;;;;;;;10.65;5.90;;;19.30;86.10;;;;;;5019054;28;20113;-72
2022/08/24 04:14:43;;;;;;;8.48;5.70;;;19.30;85.90;;;;;;5013761;28;20155;-73
2022/08/24 04:17:10;;;;;;;11.02;5.72;;;19.30;85.90;;;;;;5010094;28;20064;-73
2022/08/24 04:19:36;;;;;;;8.55;6.10;;;19.20;86.00;;;;;;5046786;28;20540;-73
2022/08/24 04:22:02;;;;;;;10.35;5.68;;;19.20;86.20;;;;;;5015114;28;20117;-73
2022/08/24 04:24:27;;;;;;;10.07;5.90;;;19.20;86.30;;;;;;5019396;28;20022;-73
2022/08/24 04:26:53;;;;;;;12.13;5.95;;;19.20;86.30;;;;;;5018973;28;20078;-73
2022/08/24 04:29:19;;;;;;;10.38;6.30;;;19.20;86.30;;;;;;5017806;28;20049;-74
2022/08/24 04:31:46;;;;;;;9.73;5.90;;;19.20;86.30;;;;;;5025910;28;20489;-72
2022/08/24 04:34:14;;;;;;;13.25;6.85;;;19.20;86.20;;;;;;5013043;28;20497;-72
2022/08/24 04:36:42;;;;;;;9.13;5.60;;;19.20;86.20;;;;;;5020978;28;20063;-73
2022/08/24 04:39:07;;;;;;;12.40;6.28;;;19.20;86.20;;;;;;5010810;28;20032;-74
2022/08/24 04:41:34;;;;;;;8.75;5.32;;;19.20;86.00;;;;;;5018793;28;20117;-74
2022/08/24 04:44:00;;;;;;;9.65;6.20;;;19.20;85.80;;;;;;5010568;28;20046;-73
2022/08/24 04:46:26;;;;;;;10.27;5.78;;;19.20;85.70;;;;;;5019605;28;20029;-73
2022/08/24 04:48:52;;;;;;;9.38;5.88;;;19.10;85.60;;;;;;5026097;28;20358;-73
2022/08/24 04:51:19;;;;;;;10.68;6.07;;;19.20;85.40;;;;;;5043375;28;20041;-73
2022/08/24 04:53:45;;;;;;;9.35;5.88;;;19.10;85.50;;;;;;5024770;28;20116;-73
2022/08/24 04:56:21;;;;;;;10.55;5.50;;;19.10;85.60;;;;;;5011953;28;20026;-73
2022/08/24 04:58:49;;;;;;;8.80;5.38;;;19.20;85.70;;;;;;5004228;28;20072;-73
2022/08/24 05:01:20;;;;;;;11.25;5.95;;;19.20;85.80;;;;;;5012921;28;20026;-73
2022/08/24 05:03:49;;;;;;;9.32;5.60;;;19.30;85.70;;;;;;5021154;28;20533;-73
2022/08/24 05:06:16;;;;;;;10.60;5.75;;;19.30;85.40;;;;;;5019989;28;20053;-73
2022/08/24 05:08:42;;;;;;;9.48;6.00;;;19.30;85.30;;;;;;5023945;28;20441;-73
2022/08/24 05:11:08;;;;;;;13.38;6.13;;;19.40;85.30;;;;;;5018248;28;20369;-72
2022/08/24 05:13:35;;;;;;;11.43;5.72;;;19.40;85.10;;;;;;5015980;28;20035;-72
2022/08/24 05:16:04;;;;;;;8.70;5.47;;;19.40;85.10;;;;;;5020512;28;20034;-72
2022/08/24 05:18:32;;;;;;;13.00;6.15;;;19.50;85.00;;;;;;4994938;28;20075;-73
2022/08/24 05:20:58;;;;;;;9.10;5.25;;;19.60;84.90;;;;;;4990939;28;20041;-72
2022/08/24 05:23:24;;;;;;;10.90;5.85;;;19.60;84.80;;;;;;5005166;28;20067;-73
2022/08/24 05:25:50;;;;;;;12.35;6.97;;;19.70;84.60;;;;;;4999496;28;20141;-72
2022/08/24 05:28:16;;;;;;;9.63;5.80;;;19.80;84.60;;;;;;4999616;28;20151;-73
2022/08/24 05:30:41;;;;;;;11.80;6.30;;;19.80;84.50;;;;;;5002485;28;20100;-73
2022/08/24 05:33:07;;;;;;;13.98;6.43;;;19.90;84.30;;;;;;4993436;28;20400;-73
2022/08/24 05:35:37;;;;;;;11.25;5.57;;;20.00;84.10;;;;;;5031818;28;20568;-73
2022/08/24 05:38:03;;;;;;;11.98;6.75;;;20.10;83.80;;;;;;5001426;28;20121;-74
2022/08/24 05:40:29;;;;;;;11.82;7.13;;;20.10;83.70;;;;;;5003630;28;20180;-73
2022/08/24 05:42:55;;;;;;;10.70;6.85;;;20.10;83.50;;;;;;4997913;28;20372;-73
2022/08/24 05:45:20;;;;;;;10.90;6.72;;;20.20;83.80;;;;;;4991817;28;20030;-73
2022/08/24 05:47:46;;;;;;;10.90;6.00;;;20.30;83.60;;;;;;4993616;28;20050;-72
2022/08/24 05:50:12;;;;;;;9.45;5.93;;;20.40;83.40;;;;;;4996037;28;20038;-73
2022/08/24 05:52:37;;;;;;;10.30;6.60;;;20.60;83.10;;;;;;4999177;28;20031;-72
2022/08/24 05:55:05;;;;;;;11.10;7.00;;;20.60;82.60;;;;;;5001188;28;20386;-75
2022/08/24 05:57:32;;;;;;;11.80;6.65;;;20.70;82.60;;;;;;4994932;28;20033;-72
2022/08/24 05:59:58;;;;;;;10.23;6.43;;;20.80;82.30;;;;;;4994391;28;20444;-72
2022/08/24 06:02:24;;;;;;;9.93;6.55;;;20.90;82.10;;;;;;4998422;28;20129;-73
2022/08/24 06:04:49;;;;;;;11.15;7.22;;;21.00;81.80;;;;;;5003081;28;20130;-73
2022/08/24 06:07:15;;;;;;;9.82;6.25;;;21.10;81.70;;;;;;4998135;28;20050;-72
2022/08/24 06:09:41;;;;;;;12.95;7.10;;;21.10;81.70;;;;;;4991902;28;20492;-74
2022/08/24 06:12:08;;;;;;;13.50;6.68;;;21.10;81.40;;;;;;4996218;28;20054;-72
2022/08/24 06:14:34;;;;;;;11.02;6.30;;;21.20;81.30;;;;;;4997949;28;20085;-73
2022/08/24 06:17:06;;;;;;;9.88;6.60;;;21.30;81.30;;;;;;4991344;28;20498;-73
2022/08/24 06:19:32;;;;;;;13.25;7.65;;;21.30;81.30;;;;;;4989326;28;20073;-72
2022/08/24 06:21:58;;;;;;;11.50;7.00;;;21.40;81.20;;;;;;4995318;28;20035;-73
2022/08/24 06:27:20;;;;;;;9.57;6.40;;;21.50;81.00;;;;;;4980144;28;20464;-72
2022/08/24 06:29:57;;;;;;;10.70;6.28;;;21.50;81.10;;;;;;4991368;28;20108;-74
2022/08/24 06:32:24;;;;;;;10.98;7.53;;;21.50;81.20;;;;;;4992447;28;20366;-72
2022/08/24 06:34:54;;;;;;;12.32;7.85;;;21.60;81.30;;;;;;4999110;28;20034;-73
2022/08/24 06:37:20;;;;;;;11.77;7.47;;;21.60;81.00;;;;;;4989735;28;20078;-72
2022/08/24 06:39:45;;;;;;;13.95;7.10;;;21.60;80.90;;;;;;4996405;28;20061;-73
2022/08/24 06:42:11;;;;;;;12.75;8.13;;;21.70;80.90;;;;;;4998816;28;20482;-72
2022/08/24 06:44:37;;;;;;;13.05;7.43;;;21.90;80.60;;;;;;4994685;28;20386;-73
2022/08/24 06:47:03;;;;;;;13.43;7.80;;;21.90;80.00;;;;;;4996439;28;20637;-72
2022/08/24 06:49:28;;;;;;;13.68;8.15;;;22.10;80.10;;;;;;4989071;28;20062;-75
2022/08/24 06:51:54;;;;;;;13.52;8.68;;;22.20;79.80;;;;;;4990097;28;20107;-73
2022/08/24 06:54:20;;;;;;;13.80;9.48;;;22.40;79.80;;;;;;4997834;28;20049;-72
2022/08/24 06:56:46;;;;;;;11.07;8.80;;;22.50;80.00;;;;;;5005098;28;20405;-72
2022/08/24 06:59:11;;;;;;;12.13;8.43;;;22.60;79.60;;;;;;4991460;28;20485;-73
2022/08/24 07:01:37;;;;;;;19.20;10.07;;;22.80;79.30;;;;;;4985492;28;20043;-74
2022/08/24 07:04:03;;;;;;;14.48;9.75;;;23.00;78.50;;;;;;4989331;28;20038;-72
2022/08/24 07:06:29;;;;;;;17.50;10.75;;;23.00;78.90;;;;;;4994468;28;20482;-73
2022/08/24 07:08:55;;;;;;;14.50;11.05;;;23.10;78.20;;;;;;5002716;28;20057;-72
2022/08/24 07:11:21;;;;;;;12.93;10.98;;;23.10;78.70;;;;;;4996360;28;20033;-73
2022/08/24 07:13:48;;;;;;;18.42;11.68;;;23.10;78.80;;;;;;4996723;28;20050;-72
2022/08/24 07:16:16;;;;;;;16.10;11.52;;;23.30;78.90;;;;;;4986036;28;20065;-72
2022/08/24 07:18:43;;;;;;;12.68;10.50;;;23.40;78.30;;;;;;4994067;28;20041;-72
2022/08/24 07:21:09;;;;;;;13.98;11.63;;;23.50;78.20;;;;;;4995563;28;20126;-72
2022/08/24 07:23:35;;;;;;;13.82;11.27;;;23.50;77.90;;;;;;4994851;28;20069;-72
2022/08/24 07:26:12;;;;;;;13.73;11.48;;;23.60;77.70;;;;;;4998326;28;20061;-72
2022/08/24 07:28:38;;;;;;;16.02;12.80;;;23.60;78.00;;;;;;5048545;28;20117;-72
2022/08/24 07:31:05;;;;;;;12.90;10.75;;;23.60;78.20;;;;;;5011226;28;20045;-74
2022/08/24 07:33:32;;;;;;;12.73;11.43;;;23.60;78.10;;;;;;4992826;28;20027;-72
2022/08/24 07:35:58;;;;;;;14.82;11.18;;;23.60;77.70;;;;;;5002348;28;20046;-72
2022/08/24 07:38:24;;;;;;;15.43;12.77;;;23.60;77.70;;;;;;4994888;28;20038;-72
2022/08/24 07:40:50;;;;;;;15.15;12.77;;;23.60;77.50;;;;;;4998953;28;20100;-72
2022/08/24 07:43:16;;;;;;;16.95;12.73;;;23.70;77.30;;;;;;4996152;28;20042;-73
2022/08/24 07:45:42;;;;;;;13.40;11.90;;;23.80;76.90;;;;;;4992583;28;20058;-73
2022/08/24 07:48:08;;;;;;;15.48;13.70;;;23.80;77.30;;;;;;4991249;28;20065;-73
2022/08/24 07:50:33;;;;;;;17.10;14.20;;;23.90;76.60;;;;;;4989103;28;20431;-73
2022/08/24 07:52:59;;;;;;;16.77;13.32;;;23.80;76.30;;;;;;5000755;28;20045;-72
2022/08/24 07:55:25;;;;;;;16.48;13.70;;;24.20;77.00;;;;;;4996419;28;20121;-74
2022/08/24 07:57:51;;;;;;;19.48;13.75;;;24.60;75.10;;;;;;4996342;28;20073;-72
2022/08/24 08:00:18;;;;;;;17.05;13.63;;;24.90;73.70;;;;;;4996390;28;20195;-72
2022/08/24 08:02:46;;;;;;;18.92;13.52;;;25.30;73.00;;;;;;4994837;28;20038;-72
2022/08/24 08:05:14;;;;;;;17.83;13.20;;;25.50;71.90;;;;;;4995653;28;20790;-72
2022/08/24 08:07:40;;;;;;;15.48;12.75;;;25.60;70.90;;;;;;4994999;28;20046;-72
2022/08/24 08:10:07;;;;;;;17.75;12.52;;;25.80;71.30;;;;;;5003005;28;20030;-72
2022/08/24 08:12:34;;;;;;;15.45;12.45;;;25.80;71.30;;;;;;4992265;28;20054;-75
2022/08/24 08:14:59;;;;;;;18.38;12.82;;;26.10;70.10;;;;;;4991524;28;20060;-72
2022/08/24 08:17:26;;;;;;;18.33;13.10;;;26.40;68.50;;;;;;4999916;28;20464;-72
2022/08/24 08:19:51;;;;;;;14.85;12.27;;;26.50;67.90;;;;;;4994062;28;20045;-72
2022/08/24 08:25:01;;;;;;;;;;;26.50;67.90;;;;;;4991913;28;20045;-74
2022/08/24 08:27:27;;;;;;;18.33;11.45;;;26.70;66.60;;;;;;4989487;28;19929;-73
2022/08/24 08:29:52;;;;;;;12.35;10.48;;;26.80;65.10;;;;;;4992993;28;20038;-73
2022/08/24 08:32:18;;;;;;;14.15;11.75;;;26.70;65.80;;;;;;4998103;28;20035;-73
2022/08/24 08:34:45;;;;;;;12.65;10.48;;;26.90;65.40;;;;;;5005588;28;20038;-72
2022/08/24 08:37:12;;;;;;;13.02;9.63;;;27.00;65.40;;;;;;4997162;28;20093;-72
2022/08/24 08:39:39;;;;;;;11.55;9.90;;;26.90;65.60;;;;;;4990633;28;20617;-72
2022/08/24 08:42:17;;;;;;;11.15;8.10;;;27.00;65.60;;;;;;4998014;28;20031;-73
2022/08/24 08:44:48;;;;;;;11.25;7.30;;;27.20;64.60;;;;;;4993256;28;20431;-72
2022/08/24 08:47:51;;;;;;;12.40;7.97;;;27.40;64.00;;;;;;4997242;28;20034;-73
2022/08/24 08:50:46;;;;;;;11.68;7.05;;;27.30;63.50;;;;;;4989374;28;20125;-73
2022/08/24 08:54:10;;;;;;;9.10;6.45;;;27.60;62.10;;;;;;4990155;28;20082;-73
2022/08/24 08:56:57;;;;;;;9.52;6.65;;;27.80;61.90;;;;;;4983274;28;20035;-73
2022/08/24 08:59:44;;;;;;;9.90;6.18;;;28.00;61.50;;;;;;4987939;28;20501;-73
2022/08/24 09:02:34;;;;;;;10.57;5.80;;;27.90;60.80;;;;;;4990452;28;20125;-73
2022/08/24 09:05:26;;;;;;;10.70;6.00;;;27.90;61.00;;;;;;4993038;28;20038;-73
2022/08/24 09:08:01;;;;;;;12.98;5.40;;;28.20;60.80;;;;;;4999851;28;20089;-75
2022/08/24 09:10:29;;;;;;;7.85;5.30;;;28.20;59.70;;;;;;4990375;28;20037;-73
2022/08/24 09:13:17;;;;;;;8.38;5.50;;;28.10;59.70;;;;;;4992155;28;20057;-74
2022/08/24 09:16:05;;;;;;;7.70;4.45;;;27.70;61.50;;;;;;5011084;28;20133;-74
2022/08/24 09:19:20;;;;;;;7.85;4.85;;;27.80;61.60;;;;;;5038251;28;20080;-74
2022/08/24 09:22:14;;;;;;;8.98;4.65;;;27.80;61.00;;;;;;4994309;28;20129;-72
2022/08/24 09:24:50;;;;;;;;;;;27.90;60.60;;;;;;4991286;28;20039;-73
2022/08/24 09:27:39;;;;;;;12.77;4.47;;;28.10;59.70;;;;;;4998332;28;20358;-73
2022/08/24 09:30:22;;;;;;;7.72;3.95;;;28.20;59.50;;;;;;4990343;28;20482;-74
2022/08/24 09:33:12;;;;;;;6.32;3.90;;;28.60;58.10;;;;;;5003427;28;20057;-73
2022/08/24 09:35:50;;;;;;;8.23;4.05;;;29.00;56.40;;;;;;4990860;28;20034;-73
2022/08/24 09:38:54;;;;;;;8.13;4.85;;;29.40;56.50;;;;;;4991659;28;20038;-73
2022/08/24 09:41:39;;;;;;;6.93;4.03;;;29.30;55.00;;;;;;4993254;28;20033;-73
2022/08/24 09:44:35;;;;;;;7.20;4.00;;;29.50;54.40;;;;;;4991660;28;20089;-74
2022/08/24 09:47:46;;;;;;;7.18;4.15;;;29.50;54.60;;;;;;4987277;28;20042;-76
2022/08/24 09:50:25;;;;;;;7.57;5.15;;;29.60;53.90;;;;;;4998220;28;20046;-72
2022/08/24 09:53:28;;;;;;;9.98;4.43;;;29.70;54.20;;;;;;4995942;28;20046;-72
2022/08/24 09:56:00;;;;;;;7.47;4.68;;;29.90;52.80;;;;;;4996005;28;20046;-73
2022/08/24 09:59:09;;;;;;;8.02;4.03;;;30.00;53.10;;;;;;4994937;28;20061;-76
2022/08/24 10:01:49;;;;;;;5.85;3.10;;;29.90;52.10;;;;;;5046032;28;20030;-74
2022/08/24 10:04:31;;;;;;;5.05;2.90;;;30.00;53.30;;;;;;5002097;28;20030;-72
2022/08/24 10:07:20;;;;;;;6.82;2.78;;;30.20;52.60;;;;;;4992287;28;20034;-75
2022/08/24 10:09:53;;;;;;;6.63;2.70;;;30.60;51.10;;;;;;4989545;28;20047;-73
2022/08/24 10:12:46;;;;;;;7.53;2.88;;;30.80;50.20;;;;;;4991554;28;20077;-73
2022/08/24 10:15:28;;;;;;;6.07;2.58;;;30.70;50.10;;;;;;5000295;28;20030;-73
2022/08/24 10:18:19;;;;;;;5.03;2.90;;;30.90;49.00;;;;;;4991845;28;20048;-72
2022/08/24 10:21:02;;;;;;;6.03;3.20;;;30.90;49.20;;;;;;4998773;28;20030;-73
2022/08/24 10:24:13;;;;;;;4.82;2.72;;;30.60;49.10;;;;;;4989410;28;20589;-73
2022/08/24 10:27:01;;;;;;;5.05;2.38;;;30.80;49.40;;;;;;4990905;28;20038;-74
2022/08/24 10:29:36;;;;;;;6.97;2.25;;;30.80;50.20;;;;;;5022628;28;20064;-73
2022/08/24 10:32:21;;;;;;;4.90;1.90;;;31.00;48.50;;;;;;5011547;28;20053;-73
2022/08/24 10:34:59;;;;;;;5.07;2.00;;;31.00;48.50;;;;;;5025874;28;20029;-73
2022/08/24 10:37:42;;;;;;;4.97;1.50;;;31.10;47.50;;;;;;5018872;28;20440;-74
2022/08/24 10:40:35;;;;;;;6.40;2.55;;;31.30;46.30;;;;;;5018956;28;20405;-73
2022/08/24 10:43:35;;;;;;;4.88;2.45;;;31.40;46.20;;;;;;5009001;28;20452;-76
2022/08/24 10:46:25;;;;;;;5.10;2.40;;;31.10;48.30;;;;;;5044023;28;20474;-74
2022/08/24 10:49:03;;;;;;;3.35;1.90;;;31.40;47.80;;;;;;5013661;28;20136;-73
2022/08/24 10:51:48;;;;;;;5.57;2.00;;;31.70;47.40;;;;;;5010454;28;20030;-74
2022/08/24 10:54:17;;;;;;;2.63;1.63;;;31.90;46.70;;;;;;5009027;28;20037;-74
2022/08/24 10:57:14;;;;;;;3.60;1.90;;;31.70;46.70;;;;;;5016766;28;20063;-74
2022/08/24 11:00:04;;;;;;;6.20;2.08;;;32.00;45.90;;;;;;5006332;28;20041;-72
2022/08/24 11:02:38;;;;;;;4.13;1.80;;;31.80;46.10;;;;;;5011468;28;20096;-73
2022/08/24 11:05:28;;;;;;;4.00;1.73;;;31.90;46.10;;;;;;5003810;28;20128;-75
2022/08/24 11:08:00;;;;;;;4.85;1.85;;;32.00;45.50;;;;;;5006719;28;20148;-73
2022/08/24 11:10:34;;;;;;;5.15;1.98;;;32.00;45.40;;;;;;5007259;28;20430;-73
2022/08/24 11:13:20;;;;;;;5.18;1.60;;;32.30;45.10;;;;;;5015522;28;20037;-73
2022/08/24 11:15:50;;;;;;;2.60;1.35;;;32.30;45.10;;;;;;5007764;28;20041;-73
2022/08/24 11:18:16;;;;;;;4.15;1.60;;;32.40;44.40;;;;;;5020725;28;20041;-73
2022/08/24 11:20:48;;;;;;;3.17;1.73;;;32.30;44.90;;;;;;5015127;28;20061;-73
2022/08/24 11:23:35;;;;;;;3.20;1.63;;;31.70;46.00;;;;;;5019629;28;20099;-73
2022/08/24 11:26:17;;;;;;;6.25;1.90;;;31.40;46.20;;;;;;5041184;28;20370;-73
2022/08/24 11:28:51;;;;;;;3.30;1.50;;;31.40;46.10;;;;;;5007996;28;20054;-73
2022/08/24 11:31:39;;;;;;;3.10;1.50;;;31.70;45.70;;;;;;5016355;28;20042;-73
2022/08/24 11:34:28;;;;;;;5.60;1.50;;;32.10;45.30;;;;;;5014571;28;20041;-73
2022/08/24 11:36:54;;;;;;;2.88;1.42;;;32.50;43.80;;;;;;5018246;28;20045;-73
2022/08/24 11:39:24;;;;;;;2.40;1.10;;;32.80;42.50;;;;;;5009613;28;20026;-73
2022/08/24 11:42:29;;;;;;;3.08;1.40;;;33.10;41.80;;;;;;5016036;28;20101;-74
2022/08/24 11:45:04;;;;;;;3.55;1.50;;;33.40;41.60;;;;;;5001315;28;20033;-73
2022/08/24 11:48:01;;;;;;;3.67;1.60;;;32.90;42.00;;;;;;5005812;28;20045;-73
2022/08/24 11:51:24;;;;;;;3.90;1.55;;;32.30;43.10;;;;;;5018777;28;20057;-73
2022/08/24 11:54:08;;;;;;;4.93;1.50;;;32.00;43.20;;;;;;4950260;28;20084;-73
2022/08/24 11:56:52;;;;;;;4.10;1.80;;;32.20;43.30;;;;;;4948887;28;20039;-74
2022/08/24 11:59:51;;;;;;;3.33;1.60;;;32.60;43.40;;;;;;5001441;28;20398;-73
2022/08/24 12:02:27;;;;;;;3.30;1.55;;;32.90;42.80;;;;;;5014795;28;20053;-73
2022/08/24 12:05:30;;;;;;;2.58;1.40;;;33.20;42.40;;;;;;5016437;28;20486;-74
2022/08/24 12:08:08;;;;;;;2.90;1.30;;;32.90;40.80;;;;;;5018652;28;20478;-73
2022/08/24 12:10:47;;;;;;;4.28;1.30;;;32.80;42.30;;;;;;5012474;28;20331;-74
2022/08/24 12:13:24;;;;;;;2.50;1.38;;;32.60;41.60;;;;;;5009089;28;20069;-73
2022/08/24 12:16:06;;;;;;;3.55;1.40;;;32.30;42.70;;;;;;5019898;28;20045;-73
2022/08/24 12:18:51;;;;;;;5.15;1.50;;;31.90;43.40;;;;;;5050322;28;20489;-73
2022/08/24 12:21:22;;;;;;;3.40;1.42;;;31.70;44.00;;;;;;5015279;28;20049;-73
2022/08/24 12:23:53;;;;;;;3.03;1.40;;;31.50;44.30;;;;;;5014703;28;20065;-73
2022/08/24 12:26:37;;;;;;;3.15;1.40;;;31.30;45.40;;;;;;5021286;28;20124;-74
2022/08/24 12:29:08;;;;;;;3.80;1.65;;;31.20;45.40;;;;;;5020848;28;20057;-74
2022/08/24 12:31:42;;;;;;;3.03;1.30;;;31.30;46.20;;;;;;5016658;28;20033;-73
2022/08/24 12:34:26;;;;;;;3.40;1.58;;;31.20;44.90;;;;;;5047304;28;20057;-73
2022/08/24 12:37:14;;;;;;;2.45;1.45;;;31.10;46.20;;;;;;5018282;28;20120;-73
2022/08/24 12:40:06;;;;;;;3.70;1.60;;;30.90;46.20;;;;;;5008275;28;20490;-74
2022/08/24 12:42:59;;;;;;;3.42;1.92;;;30.80;47.60;;;;;;5011642;28;20052;-74
2022/08/24 12:45:26;;;;;;;3.03;1.58;;;30.70;47.30;;;;;;5015761;28;20072;-73
2022/08/24 12:48:00;;;;;;;5.80;1.67;;;30.70;48.50;;;;;;5018913;28;20042;-73
2022/08/24 12:50:57;;;;;;;3.88;1.67;;;30.70;48.40;;;;;;5019867;28;20258;-73
2022/08/24 12:53:31;;;;;;;5.55;1.70;;;30.70;48.70;;;;;;5015654;28;20033;-75
2022/08/24 12:56:27;;;;;;;3.10;1.40;;;30.50;49.30;;;;;;5016780;28;20060;-74
2022/08/24 12:59:02;;;;;;;5.57;1.60;;;30.50;48.50;;;;;;5020266;28;20041;-74
2022/08/24 13:01:34;;;;;;;3.38;1.55;;;30.50;48.90;;;;;;5044264;28;20645;-73
2022/08/24 13:04:14;;;;;;;4.32;1.60;;;30.60;46.90;;;;;;5015607;28;20386;-75
2022/08/24 13:06:51;;;;;;;3.50;1.63;;;30.60;48.30;;;;;;5020339;28;20045;-73
2022/08/24 13:09:40;;;;;;;2.55;1.60;;;30.70;47.90;;;;;;5011428;28;20046;-73
2022/08/24 13:12:40;;;;;;;6.68;1.58;;;30.80;47.10;;;;;;5017956;28;20053;-73
2022/08/24 13:15:23;;;;;;;3.72;1.50;;;30.80;46.90;;;;;;5006480;28;20050;-74
2022/08/24 13:18:08;;;;;;;4.73;1.67;;;30.90;48.10;;;;;;5018012;28;20046;-73
2022/08/24 13:20:33;;;;;;;2.60;1.60;;;30.80;47.40;;;;;;5048091;28;20037;-74